Wetterdaten: Woche 08.02.16 - 14.02.16 (KW6)
Datum Zeit Temperatur Luftfeuchte Luftdruck Niederschlag Windrichtung Sonnenschein Solar Wind
08.02.2016 00:00 3,2 C 96 % 1011,7 hPa 0,0 l/m SW 0,00 h 0 W/m 14,1 km/h (3 Bft)
08.02.2016 01:00 3,0 C 95 % 1011,0 hPa 0,0 l/m SW 0,00 h 0 W/m 17,8 km/h (3 Bft)
08.02.2016 02:00 2,8 C 93 % 1010,7 hPa 0,0 l/m SW 0,00 h 0 W/m 17,7 km/h (3 Bft)
08.02.2016 03:00 2,8 C 89 % 1010,1 hPa 0,0 l/m SW 0,00 h 0 W/m 15,4 km/h (3 Bft)
08.02.2016 04:00 2,8 C 87 % 1009,7 hPa 0,0 l/m W-SW 0,00 h 0 W/m 21,2 km/h (4 Bft)
08.02.2016 05:00 3,1 C 84 % 1009,4 hPa 0,0 l/m W-SW 0,00 h 0 W/m 26,7 km/h (4 Bft)
08.02.2016 06:00 3,8 C 80 % 1008,8 hPa 0,0 l/m W-SW 0,00 h 0 W/m 36,1 km/h (5 Bft)
08.02.2016 07:00 4,0 C 78 % 1008,7 hPa 0,0 l/m SW 0,00 h 8 W/m 27,1 km/h (4 Bft)
08.02.2016 08:00 3,5 C 84 % 1008,4 hPa 0,0 l/m SW 0,00 h 29 W/m 21,4 km/h (4 Bft)
08.02.2016 09:00 4,0 C 84 % 1007,5 hPa 0,0 l/m SW 0,00 h 82 W/m 22,8 km/h (4 Bft)
08.02.2016 10:00 5,2 C 80 % 1006,6 hPa 0,0 l/m SW 0,58 h 238 W/m 22,4 km/h (4 Bft)
08.02.2016 11:00 7,2 C 70 % 1005,6 hPa 0,0 l/m W-SW 0,67 h 281 W/m 26,3 km/h (4 Bft)
08.02.2016 12:00 8,3 C 69 % 1004,4 hPa 0,0 l/m SW 0,42 h 236 W/m 20,8 km/h (4 Bft)
08.02.2016 13:00 9,6 C 65 % 1003,9 hPa 0,0 l/m SW 0,25 h 214 W/m 36,3 km/h (5 Bft)
08.02.2016 14:00 10,1 C 65 % 1003,0 hPa 0,0 l/m W-SW 0,00 h 114 W/m 43,4 km/h (6 Bft)
08.02.2016 15:00 10,4 C 66 % 1002,9 hPa 0,0 l/m SW 0,00 h 88 W/m 50,4 km/h (7 Bft)
08.02.2016 16:00 10,6 C 67 % 1002,7 hPa 0,0 l/m SW 0,00 h 37 W/m 40,5 km/h (6 Bft)
08.02.2016 17:00 9,4 C 77 % 1003,7 hPa 0,2 l/m W-SW 0,00 h 12 W/m 41,4 km/h (6 Bft)
08.02.2016 18:00 9,5 C 74 % 1004,4 hPa 0,0 l/m W-SW 0,00 h 0 W/m 52,6 km/h (7 Bft)
08.02.2016 19:00 7,7 C 84 % 1005,8 hPa 0,4 l/m W-SW 0,00 h 0 W/m 38,2 km/h (5 Bft)
08.02.2016 20:00 6,9 C 90 % 1006,3 hPa 0,4 l/m W-SW 0,00 h 0 W/m 30,3 km/h (5 Bft)
08.02.2016 21:00 7,5 C 85 % 1007,0 hPa 0,0 l/m W-SW 0,00 h 0 W/m 29,5 km/h (5 Bft)
08.02.2016 22:00 7,1 C 85 % 1007,4 hPa 0,4 l/m W-SW 0,00 h 0 W/m 43,3 km/h (6 Bft)
08.02.2016 23:00 6,1 C 90 % 1008,0 hPa 1,2 l/m W 0,00 h 0 W/m 35,8 km/h (5 Bft)
09.02.2016 00:00 5,6 C 91 % 1008,3 hPa 0,4 l/m W 0,00 h 0 W/m 34,1 km/h (5 Bft)
09.02.2016 01:00 5,6 C 92 % 1008,2 hPa 0,4 l/m W-SW 0,00 h 0 W/m 18,4 km/h (3 Bft)
09.02.2016 02:00 5,5 C 90 % 1007,8 hPa 0,0 l/m W 0,00 h 0 W/m 27,2 km/h (4 Bft)
09.02.2016 03:00 5,2 C 87 % 1007,7 hPa 0,0 l/m W-SW 0,00 h 0 W/m 20,2 km/h (4 Bft)
09.02.2016 04:00 4,9 C 91 % 1006,9 hPa 0,0 l/m S-SW 0,00 h 0 W/m 13,0 km/h (3 Bft)
09.02.2016 05:00 5,1 C 94 % 1006,0 hPa 0,0 l/m W-SW 0,00 h 0 W/m 16,0 km/h (3 Bft)
09.02.2016 06:00 5,3 C 92 % 1005,1 hPa 0,0 l/m W-SW 0,00 h 0 W/m 10,5 km/h (2 Bft)
09.02.2016 07:00 6,4 C 89 % 1003,9 hPa 0,0 l/m W-SW 0,00 h 7 W/m 18,5 km/h (3 Bft)
09.02.2016 08:00 6,6 C 87 % 1003,0 hPa 0,0 l/m SW 0,00 h 11 W/m 6,7 km/h (2 Bft)
09.02.2016 09:00 6,2 C 90 % 1001,9 hPa 0,2 l/m SW 0,00 h 31 W/m 10,9 km/h (2 Bft)
09.02.2016 10:00 6,2 C 93 % 1000,7 hPa 0,2 l/m SW 0,00 h 50 W/m 17,6 km/h (3 Bft)
09.02.2016 11:00 6,4 C 94 % 998,5 hPa 0,0 l/m SW 0,00 h 61 W/m 11,0 km/h (2 Bft)
09.02.2016 12:00 6,9 C 93 % 996,6 hPa 0,0 l/m S-SW 0,00 h 74 W/m 13,6 km/h (3 Bft)
09.02.2016 13:00 7,2 C 90 % 994,7 hPa 0,2 l/m S-SW 0,00 h 46 W/m 14,1 km/h (3 Bft)
09.02.2016 14:00 7,4 C 87 % 993,6 hPa 1,2 l/m W-SW 0,00 h 20 W/m 25,1 km/h (4 Bft)
09.02.2016 15:00 7,5 C 89 % 991,9 hPa 0,2 l/m W-SW 0,00 h 28 W/m 12,8 km/h (3 Bft)
09.02.2016 16:00 7,8 C 87 % 991,3 hPa 0,2 l/m W-SW 0,00 h 11 W/m 24,1 km/h (4 Bft)
09.02.2016 17:00 7,7 C 87 % 990,6 hPa 0,6 l/m W-SW 0,00 h 0 W/m 22,1 km/h (4 Bft)
09.02.2016 18:00 7,8 C 85 % 989,9 hPa 0,0 l/m W-SW 0,00 h 0 W/m 20,9 km/h (4 Bft)
09.02.2016 19:00 8,0 C 82 % 990,2 hPa 1,2 l/m W-SW 0,00 h 0 W/m 37,3 km/h (5 Bft)
09.02.2016 20:00 4,6 C 89 % 991,6 hPa 0,8 l/m W 0,00 h 0 W/m 42,9 km/h (6 Bft)
09.02.2016 21:00 4,8 C 84 % 992,2 hPa 0,0 l/m W-SW 0,00 h 0 W/m 31,8 km/h (5 Bft)
09.02.2016 22:00 4,7 C 83 % 993,0 hPa 0,0 l/m W-SW 0,00 h 0 W/m 20,4 km/h (4 Bft)
09.02.2016 23:00 3,0 C 87 % 993,5 hPa 0,6 l/m W 0,00 h 0 W/m 29,8 km/h (5 Bft)
10.02.2016 00:00 1,6 C 89 % 993,8 hPa 0,0 l/m W 0,00 h 0 W/m 28,7 km/h (4 Bft)
10.02.2016 01:00 1,4 C 86 % 994,1 hPa 0,0 l/m W 0,00 h 0 W/m 31,5 km/h (5 Bft)
10.02.2016 02:00 1,6 C 83 % 994,4 hPa 0,0 l/m W-SW 0,00 h 0 W/m 30,9 km/h (5 Bft)
10.02.2016 03:00 1,5 C 84 % 994,3 hPa 0,0 l/m W-SW 0,00 h 0 W/m 27,4 km/h (4 Bft)
10.02.2016 04:00 1,0 C 91 % 994,8 hPa 0,0 l/m W-SW 0,00 h 0 W/m 23,6 km/h (4 Bft)
10.02.2016 05:00 0,8 C 92 % 995,5 hPa 0,0 l/m W-SW 0,00 h 0 W/m 23,5 km/h (4 Bft)
10.02.2016 06:00 0,7 C 91 % 996,2 hPa 0,0 l/m W-SW 0,00 h 0 W/m 21,3 km/h (4 Bft)
10.02.2016 07:00 0,7 C 92 % 997,0 hPa 0,0 l/m W-SW 0,00 h 5 W/m 18,8 km/h (3 Bft)
10.02.2016 08:00 0,6 C 94 % 997,8 hPa 0,0 l/m W-SW 0,00 h 18 W/m 17,2 km/h (3 Bft)
10.02.2016 09:00 0,7 C 94 % 998,6 hPa 0,0 l/m W-SW 0,00 h 52 W/m 16,8 km/h (3 Bft)
10.02.2016 10:00 1,3 C 90 % 999,4 hPa 0,2 l/m W-SW 0,08 h 120 W/m 23,1 km/h (4 Bft)
10.02.2016 11:00 2,4 C 82 % 999,4 hPa 0,0 l/m W-SW 0,33 h 277 W/m 29,2 km/h (5 Bft)
10.02.2016 12:00 2,2 C 81 % 999,4 hPa 0,0 l/m SW 0,00 h 86 W/m 31,5 km/h (5 Bft)
10.02.2016 13:00 1,8 C 86 % 999,5 hPa 0,0 l/m W-SW 0,00 h 88 W/m 29,3 km/h (5 Bft)
10.02.2016 14:00 2,1 C 83 % 999,6 hPa 0,0 l/m W-SW 0,00 h 121 W/m 33,8 km/h (5 Bft)
10.02.2016 15:00 1,8 C 86 % 1000,0 hPa 0,0 l/m W-SW 0,00 h 73 W/m 29,5 km/h (5 Bft)
10.02.2016 16:00 2,2 C 84 % 1000,3 hPa 0,0 l/m W-SW 0,00 h 40 W/m 28,9 km/h (5 Bft)
10.02.2016 17:00 2,3 C 79 % 1001,0 hPa 0,0 l/m W-SW 0,00 h 9 W/m 24,4 km/h (4 Bft)
10.02.2016 18:00 1,9 C 82 % 1002,2 hPa 0,0 l/m W-SW 0,00 h 0 W/m 22,1 km/h (4 Bft)
10.02.2016 19:00 1,6 C 83 % 1002,8 hPa 0,0 l/m W-SW 0,00 h 0 W/m 22,9 km/h (4 Bft)
10.02.2016 20:00 1,8 C 80 % 1003,4 hPa 0,0 l/m W-SW 0,00 h 0 W/m 22,9 km/h (4 Bft)
10.02.2016 21:00 1,8 C 78 % 1004,1 hPa 0,0 l/m W-SW 0,00 h 0 W/m 25,7 km/h (4 Bft)
10.02.2016 22:00 1,6 C 79 % 1004,4 hPa 0,0 l/m W-SW 0,00 h 0 W/m 23,5 km/h (4 Bft)
10.02.2016 23:00 1,5 C 80 % 1004,9 hPa 0,0 l/m W-SW 0,00 h 0 W/m 22,3 km/h (4 Bft)
11.02.2016 00:00 1,3 C 81 % 1005,3 hPa 0,0 l/m W-SW 0,00 h 0 W/m 20,0 km/h (4 Bft)
11.02.2016 01:00 1,3 C 82 % 1005,7 hPa 0,0 l/m W-SW 0,00 h 0 W/m 25,5 km/h (4 Bft)
11.02.2016 02:00 1,3 C 81 % 1006,0 hPa 0,0 l/m W-SW 0,00 h 0 W/m 25,3 km/h (4 Bft)
11.02.2016 03:00 1,2 C 82 % 1006,5 hPa 0,0 l/m W-SW 0,00 h 0 W/m 25,3 km/h (4 Bft)
11.02.2016 04:00 1,2 C 84 % 1006,7 hPa 0,0 l/m W-SW 0,00 h 0 W/m 26,1 km/h (4 Bft)
11.02.2016 05:00 1,1 C 85 % 1007,3 hPa 0,0 l/m W-SW 0,00 h 0 W/m 20,3 km/h (4 Bft)
11.02.2016 06:00 0,8 C 87 % 1007,6 hPa 0,0 l/m SW 0,00 h 0 W/m 16,1 km/h (3 Bft)
11.02.2016 07:00 0,7 C 87 % 1007,7 hPa 0,0 l/m SW 0,00 h 5 W/m 16,1 km/h (3 Bft)
11.02.2016 08:00 0,7 C 88 % 1008,1 hPa 0,0 l/m SW 0,00 h 17 W/m 16,6 km/h (3 Bft)
11.02.2016 09:00 1,0 C 87 % 1008,3 hPa 0,0 l/m SW 0,00 h 71 W/m 16,2 km/h (3 Bft)
11.02.2016 10:00 2,5 C 83 % 1008,5 hPa 0,0 l/m SW 0,83 h 311 W/m 16,1 km/h (3 Bft)
11.02.2016 11:00 3,7 C 76 % 1008,5 hPa 0,0 l/m W-SW 0,75 h 389 W/m 19,3 km/h (3 Bft)
11.02.2016 12:00 4,4 C 69 % 1007,9 hPa 0,0 l/m W-SW 0,50 h 387 W/m 20,5 km/h (4 Bft)
11.02.2016 13:00 3,8 C 66 % 1007,3 hPa 0,0 l/m W-NW 0,00 h 92 W/m 14,8 km/h (3 Bft)
11.02.2016 14:00 4,3 C 63 % 1006,5 hPa 0,0 l/m W 0,08 h 141 W/m 12,2 km/h (2 Bft)
11.02.2016 15:00 4,2 C 61 % 1006,4 hPa 0,0 l/m W-NW 0,00 h 63 W/m 9,9 km/h (2 Bft)
11.02.2016 16:00 3,8 C 65 % 1006,2 hPa 0,0 l/m N 0,00 h 53 W/m 0,9 km/h (0 Bft)
11.02.2016 17:00 2,6 C 71 % 1006,1 hPa 0,0 l/m N 0,08 h 15 W/m 0,0 km/h (0 Bft)
11.02.2016 18:00 1,3 C 77 % 1006,2 hPa 0,0 l/m N 0,00 h 0 W/m 0,0 km/h (0 Bft)
11.02.2016 19:00 0,1 C 80 % 1006,1 hPa 0,0 l/m N 0,00 h 0 W/m 0,0 km/h (0 Bft)
11.02.2016 20:00 -0,7 C 83 % 1006,0 hPa 0,0 l/m N 0,00 h 0 W/m 0,0 km/h (0 Bft)
11.02.2016 21:00 -1,0 C 86 % 1006,0 hPa 0,0 l/m N 0,00 h 0 W/m 0,0 km/h (0 Bft)
11.02.2016 22:00 -0,9 C 88 % 1006,3 hPa 0,0 l/m N 0,00 h 0 W/m 0,0 km/h (0 Bft)
11.02.2016 23:00 -1,1 C 89 % 1006,1 hPa 0,0 l/m N 0,00 h 0 W/m 0,0 km/h (0 Bft)
12.02.2016 00:00 -1,3 C 90 % 1006,1 hPa 0,0 l/m N 0,00 h 0 W/m 0,0 km/h (0 Bft)
12.02.2016 01:00 -1,2 C 91 % 1006,0 hPa 0,0 l/m N 0,00 h 0 W/m 0,0 km/h (0 Bft)
12.02.2016 02:00 -1,1 C 91 % 1006,0 hPa 0,0 l/m W-NW 0,00 h 0 W/m 0,8 km/h (0 Bft)
12.02.2016 03:00 -0,7 C 91 % 1005,8 hPa 0,0 l/m W 0,00 h 0 W/m 4,4 km/h (1 Bft)
12.02.2016 04:00 -0,6 C 90 % 1005,6 hPa 0,0 l/m W 0,00 h 0 W/m 6,9 km/h (2 Bft)
12.02.2016 05:00 -0,4 C 92 % 1005,7 hPa 0,0 l/m W 0,00 h 0 W/m 3,2 km/h (1 Bft)
12.02.2016 06:00 -0,6 C 94 % 1005,1 hPa 0,8 l/m N 0,00 h 0 W/m 0,0 km/h (0 Bft)
12.02.2016 07:00 -0,7 C 95 % 1004,9 hPa 0,4 l/m N 0,00 h 5 W/m 0,0 km/h (0 Bft)
12.02.2016 08:00 -0,7 C 95 % 1004,4 hPa 0,2 l/m N 0,00 h 22 W/m 0,0 km/h (0 Bft)
12.02.2016 09:00 -0,4 C 96 % 1003,4 hPa 0,0 l/m N 0,58 h 182 W/m 0,0 km/h (0 Bft)
12.02.2016 10:00 0,5 C 96 % 1002,5 hPa 0,0 l/m W 1,00 h 356 W/m 0,9 km/h (0 Bft)
12.02.2016 11:00 1,7 C 93 % 1001,2 hPa 0,0 l/m W 1,00 h 455 W/m 5,6 km/h (1 Bft)
12.02.2016 12:00 3,6 C 81 % 999,6 hPa 0,0 l/m O-SO 1,00 h 478 W/m 10,6 km/h (2 Bft)
12.02.2016 13:00 4,8 C 70 % 998,1 hPa 0,0 l/m O 1,00 h 394 W/m 11,6 km/h (2 Bft)
12.02.2016 14:00 5,3 C 67 % 996,6 hPa 0,0 l/m O-SO 0,50 h 228 W/m 13,7 km/h (3 Bft)
12.02.2016 15:00 5,4 C 64 % 995,3 hPa 0,0 l/m O-SO 0,00 h 105 W/m 14,6 km/h (3 Bft)
12.02.2016 16:00 5,0 C 64 % 994,2 hPa 0,0 l/m O 0,00 h 27 W/m 10,5 km/h (2 Bft)
12.02.2016 17:00 4,6 C 63 % 993,7 hPa 0,0 l/m O-NO 0,00 h 8 W/m 5,3 km/h (1 Bft)
12.02.2016 18:00 4,1 C 68 % 994,1 hPa 0,0 l/m N 0,00 h 0 W/m 0,8 km/h (0 Bft)
12.02.2016 19:00 3,5 C 75 % 994,4 hPa 0,0 l/m S-SW 0,00 h 0 W/m 7,0 km/h (2 Bft)
12.02.2016 20:00 2,6 C 86 % 994,2 hPa 0,0 l/m S-SW 0,00 h 0 W/m 7,2 km/h (2 Bft)
12.02.2016 21:00 1,8 C 90 % 993,9 hPa 0,2 l/m N 0,00 h 0 W/m 1,1 km/h (0 Bft)
12.02.2016 22:00 1,1 C 93 % 993,5 hPa 0,4 l/m N 0,00 h 0 W/m 0,0 km/h (0 Bft)
12.02.2016 23:00 1,0 C 95 % 993,1 hPa 0,2 l/m N 0,00 h 0 W/m 0,5 km/h (0 Bft)
13.02.2016 00:00 1,1 C 95 % 992,9 hPa 0,0 l/m N 0,00 h 0 W/m 0,0 km/h (0 Bft)
13.02.2016 01:00 1,2 C 96 % 992,8 hPa 0,6 l/m SW 0,00 h 0 W/m 3,2 km/h (1 Bft)
13.02.2016 02:00 1,3 C 97 % 993,2 hPa 0,4 l/m SW 0,00 h 0 W/m 11,3 km/h (2 Bft)
13.02.2016 03:00 1,3 C 97 % 993,3 hPa 0,0 l/m W-SW 0,00 h 0 W/m 17,7 km/h (3 Bft)
13.02.2016 04:00 1,6 C 97 % 993,8 hPa 0,0 l/m W-SW 0,00 h 0 W/m 19,3 km/h (3 Bft)
13.02.2016 05:00 1,6 C 97 % 993,9 hPa 0,0 l/m W-SW 0,00 h 0 W/m 16,4 km/h (3 Bft)
13.02.2016 06:00 1,7 C 97 % 994,1 hPa 0,0 l/m SW 0,00 h 0 W/m 13,0 km/h (3 Bft)
13.02.2016 07:00 1,4 C 97 % 994,1 hPa 0,0 l/m SW 0,00 h 6 W/m 10,2 km/h (2 Bft)
13.02.2016 08:00 2,0 C 98 % 994,2 hPa 0,0 l/m SW 0,00 h 16 W/m 12,4 km/h (3 Bft)
13.02.2016 09:00 2,8 C 98 % 993,9 hPa 0,0 l/m SW 0,08 h 77 W/m 13,5 km/h (3 Bft)
13.02.2016 10:00 4,1 C 96 % 993,1 hPa 0,0 l/m W-SW 0,00 h 125 W/m 17,0 km/h (3 Bft)
13.02.2016 11:00 4,9 C 93 % 992,5 hPa 0,0 l/m SW 0,17 h 179 W/m 16,2 km/h (3 Bft)
13.02.2016 12:00 5,0 C 92 % 991,8 hPa 0,0 l/m S-SW 0,00 h 69 W/m 15,0 km/h (3 Bft)
13.02.2016 13:00 5,5 C 87 % 990,8 hPa 0,0 l/m SW 0,00 h 96 W/m 12,0 km/h (2 Bft)
13.02.2016 14:00 5,5 C 87 % 989,9 hPa 0,2 l/m SW 0,00 h 44 W/m 13,4 km/h (3 Bft)
13.02.2016 15:00 4,9 C 91 % 989,1 hPa 0,2 l/m S-SW 0,17 h 130 W/m 15,8 km/h (3 Bft)
13.02.2016 16:00 4,9 C 91 % 988,1 hPa 0,0 l/m S 0,00 h 41 W/m 6,7 km/h (2 Bft)
13.02.2016 17:00 4,7 C 93 % 988,0 hPa 0,0 l/m S-SW 0,00 h 7 W/m 5,5 km/h (1 Bft)
13.02.2016 18:00 4,4 C 93 % 988,4 hPa 0,0 l/m SW 0,00 h 0 W/m 22,0 km/h (4 Bft)
13.02.2016 19:00 4,0 C 94 % 988,4 hPa 0,0 l/m SW 0,00 h 0 W/m 19,4 km/h (3 Bft)
13.02.2016 20:00 3,9 C 96 % 988,2 hPa 0,2 l/m SW 0,00 h 0 W/m 21,4 km/h (4 Bft)
13.02.2016 21:00 4,4 C 96 % 987,9 hPa 0,4 l/m SW 0,00 h 0 W/m 20,6 km/h (4 Bft)
13.02.2016 22:00 4,6 C 96 % 987,9 hPa 0,8 l/m SW 0,00 h 0 W/m 18,2 km/h (3 Bft)
13.02.2016 23:00 5,0 C 95 % 987,9 hPa 0,2 l/m W-SW 0,00 h 0 W/m 27,8 km/h (4 Bft)
14.02.2016 00:00 5,2 C 94 % 988,2 hPa 0,0 l/m SW 0,00 h 0 W/m 25,9 km/h (4 Bft)
14.02.2016 01:00 5,3 C 93 % 988,2 hPa 0,2 l/m SW 0,00 h 0 W/m 34,6 km/h (5 Bft)
14.02.2016 02:00 5,5 C 91 % 988,6 hPa 0,0 l/m W-SW 0,00 h 0 W/m 29,2 km/h (5 Bft)
14.02.2016 03:00 5,6 C 88 % 988,5 hPa 0,0 l/m W-SW 0,00 h 0 W/m 22,6 km/h (4 Bft)
14.02.2016 04:00 5,3 C 87 % 988,0 hPa 0,0 l/m W-SW 0,00 h 0 W/m 16,5 km/h (3 Bft)
14.02.2016 05:00 4,3 C 90 % 987,7 hPa 0,0 l/m W-SW 0,00 h 0 W/m 7,2 km/h (2 Bft)
14.02.2016 06:00 4,1 C 92 % 987,3 hPa 0,0 l/m SW 0,00 h 0 W/m 12,0 km/h (2 Bft)
14.02.2016 07:00 4,6 C 91 % 987,0 hPa 0,0 l/m W-SW 0,00 h 11 W/m 16,5 km/h (3 Bft)
14.02.2016 08:00 5,3 C 89 % 986,9 hPa 0,0 l/m SW 0,08 h 72 W/m 11,3 km/h (2 Bft)
14.02.2016 09:00 6,8 C 84 % 986,5 hPa 0,0 l/m W-NW 0,17 h 132 W/m 8,3 km/h (2 Bft)
14.02.2016 10:00 7,3 C 82 % 986,6 hPa 0,0 l/m W-SW 0,00 h 114 W/m 2,4 km/h (1 Bft)
14.02.2016 11:00 7,6 C 78 % 987,0 hPa 0,0 l/m W-SW 0,00 h 111 W/m 2,8 km/h (1 Bft)
14.02.2016 12:00 7,1 C 80 % 987,3 hPa 0,0 l/m NW 0,00 h 53 W/m 7,4 km/h (2 Bft)
14.02.2016 13:00 6,2 C 86 % 988,0 hPa 0,6 l/m N-NW 0,00 h 42 W/m 14,6 km/h (3 Bft)
14.02.2016 14:00 4,6 C 93 % 989,0 hPa 1,2 l/m N-NW 0,00 h 43 W/m 14,0 km/h (3 Bft)
14.02.2016 15:00 3,6 C 95 % 990,1 hPa 1,0 l/m N-NW 0,00 h 34 W/m 11,5 km/h (2 Bft)
14.02.2016 16:00 3,4 C 95 % 991,3 hPa 0,6 l/m W 0,00 h 26 W/m 9,4 km/h (2 Bft)
14.02.2016 17:00 3,2 C 96 % 992,4 hPa 0,4 l/m W-SW 0,00 h 10 W/m 9,8 km/h (2 Bft)
14.02.2016 18:00 3,0 C 96 % 993,4 hPa 0,0 l/m SW 0,00 h 0 W/m 11,4 km/h (2 Bft)
14.02.2016 19:00 2,8 C 96 % 994,6 hPa 0,0 l/m SW 0,00 h 0 W/m 9,7 km/h (2 Bft)
14.02.2016 20:00 2,8 C 97 % 995,3 hPa 0,0 l/m S-SW 0,00 h 0 W/m 7,5 km/h (2 Bft)
14.02.2016 21:00 2,7 C 97 % 996,1 hPa 0,0 l/m SW 0,00 h 0 W/m 10,1 km/h (2 Bft)
14.02.2016 22:00 2,6 C 97 % 996,8 hPa 0,0 l/m SW 0,00 h 0 W/m 9,9 km/h (2 Bft)
14.02.2016 23:00 2,6 C 98 % 997,3 hPa 0,0 l/m SW 0,00 h 0 W/m 11,3 km/h (2 Bft)
Min-Datum _ 12.02.16 11.02.16 14.02.16 - - - - 09.02.16
_ Min-Zeit 00:10 14:55 09:35 - - - - 08:20
Minimum _ -1,3 C 57 % 986,3 hPa - - - - 0,0 km/h (0 Bft)
Max-Datum _ 08.02.16 12.02.16 08.02.16 08.02.16 - 08.02.16 11.02.16 09.02.16
_ Max-Zeit 16:00 06:40 00:15 23:40 - 10:25 12:25 19:50
Maximum _ 10,8 C 100 % 1011,9 hPa 1,2 l/m - 0,08 h 636 W/m 72,4 km/h
W-SW (8 Bft)
Durchschnitt _ 3,6 C 86 % 998,9 hPa #18,2 l/m W-SW #10:20 h 103 W/m 17,3 km/h (3 Bft)